Авиационная погода в Кишинёве

Регион: 
Погода METAR: 
LUKK 171330Z VRB04KT CAVOK 14/01 Q1017 R26/D NOSIG
Время наблюдения
2021-04-17T13:30:00Z
Температура C
14.0
Точка росы
1.0
Направление ветра
0
Скорость ветра (узлы)
4
Метео видимость
6.21
Явления погоды
Условия полета
VFR